sensor_id;sensor_type;location;lat;lon;timestamp;P1;durP1;ratioP1;P2;durP2;ratioP2
28009;SDS011;15334;49.494;8.410;2022-11-13T00:01:21;48.50;;;18.33;;
28009;SDS011;15334;49.494;8.410;2022-11-13T00:03:51;52.28;;;19.20;;
28009;SDS011;15334;49.494;8.410;2022-11-13T00:06:20;58.53;;;19.85;;
28009;SDS011;15334;49.494;8.410;2022-11-13T00:08:51;53.50;;;19.55;;
28009;SDS011;15334;49.494;8.410;2022-11-13T00:11:20;56.67;;;21.30;;
28009;SDS011;15334;49.494;8.410;2022-11-13T00:13:49;44.53;;;17.83;;
28009;SDS011;15334;49.494;8.410;2022-11-13T00:16:18;50.03;;;18.50;;
28009;SDS011;15334;49.494;8.410;2022-11-13T00:18:49;44.95;;;17.67;;
28009;SDS011;15334;49.494;8.410;2022-11-13T00:21:18;43.58;;;15.50;;
28009;SDS011;15334;49.494;8.410;2022-11-13T00:23:49;41.47;;;15.23;;
28009;SDS011;15334;49.494;8.410;2022-11-13T00:26:19;50.80;;;17.42;;
28009;SDS011;15334;49.494;8.410;2022-11-13T00:28:53;42.13;;;15.68;;
28009;SDS011;15334;49.494;8.410;2022-11-13T00:31:23;49.15;;;16.50;;
28009;SDS011;15334;49.494;8.410;2022-11-13T00:33:52;49.65;;;17.50;;
28009;SDS011;15334;49.494;8.410;2022-11-13T00:36:40;40.78;;;15.75;;
28009;SDS011;15334;49.494;8.410;2022-11-13T00:39:09;47.45;;;16.38;;
28009;SDS011;15334;49.494;8.410;2022-11-13T00:41:38;37.55;;;14.27;;
28009;SDS011;15334;49.494;8.410;2022-11-13T00:44:07;53.97;;;16.05;;
28009;SDS011;15334;49.494;8.410;2022-11-13T00:46:35;43.85;;;14.43;;
28009;SDS011;15334;49.494;8.410;2022-11-13T00:49:09;50.22;;;16.67;;
28009;SDS011;15334;49.494;8.410;2022-11-13T00:51:38;35.35;;;15.43;;
28009;SDS011;15334;49.494;8.410;2022-11-13T00:54:31;51.28;;;17.35;;
28009;SDS011;15334;49.494;8.410;2022-11-13T00:57:22;55.38;;;17.25;;
28009;SDS011;15334;49.494;8.410;2022-11-13T00:59:50;48.17;;;17.50;;
28009;SDS011;15334;49.494;8.410;2022-11-13T01:02:19;57.25;;;15.88;;
28009;SDS011;15334;49.494;8.410;2022-11-13T01:04:50;50.78;;;15.95;;
28009;SDS011;15334;49.494;8.410;2022-11-13T01:07:19;44.50;;;15.50;;
28009;SDS011;15334;49.494;8.410;2022-11-13T01:09:49;50.83;;;15.88;;
28009;SDS011;15334;49.494;8.410;2022-11-13T01:12:18;37.28;;;14.65;;
28009;SDS011;15334;49.494;8.410;2022-11-13T01:14:47;42.80;;;15.52;;
28009;SDS011;15334;49.494;8.410;2022-11-13T01:17:16;38.67;;;13.68;;
28009;SDS011;15334;49.494;8.410;2022-11-13T01:19:44;34.88;;;14.02;;
28009;SDS011;15334;49.494;8.410;2022-11-13T01:22:15;43.00;;;15.45;;
28009;SDS011;15334;49.494;8.410;2022-11-13T01:24:44;42.58;;;16.23;;
28009;SDS011;15334;49.494;8.410;2022-11-13T01:27:12;30.65;;;11.85;;
28009;SDS011;15334;49.494;8.410;2022-11-13T01:29:43;32.90;;;11.90;;
28009;SDS011;15334;49.494;8.410;2022-11-13T01:32:12;38.47;;;12.98;;
28009;SDS011;15334;49.494;8.410;2022-11-13T01:34:42;32.23;;;13.70;;
28009;SDS011;15334;49.494;8.410;2022-11-13T01:37:14;37.03;;;13.43;;
28009;SDS011;15334;49.494;8.410;2022-11-13T01:39:42;31.75;;;13.02;;
28009;SDS011;15334;49.494;8.410;2022-11-13T01:42:10;33.60;;;13.20;;
28009;SDS011;15334;49.494;8.410;2022-11-13T01:44:45;34.40;;;12.48;;
28009;SDS011;15334;49.494;8.410;2022-11-13T01:47:19;27.50;;;11.52;;
28009;SDS011;15334;49.494;8.410;2022-11-13T01:49:50;29.95;;;11.93;;
28009;SDS011;15334;49.494;8.410;2022-11-13T01:52:25;37.33;;;13.35;;
28009;SDS011;15334;49.494;8.410;2022-11-13T01:55:06;32.10;;;12.00;;
28009;SDS011;15334;49.494;8.410;2022-11-13T01:57:39;29.23;;;13.02;;
28009;SDS011;15334;49.494;8.410;2022-11-13T02:00:14;28.60;;;11.35;;
28009;SDS011;15334;49.494;8.410;2022-11-13T02:02:47;36.20;;;13.77;;
28009;SDS011;15334;49.494;8.410;2022-11-13T02:05:18;25.02;;;11.55;;
28009;SDS011;15334;49.494;8.410;2022-11-13T02:08:15;38.10;;;12.35;;
28009;SDS011;15334;49.494;8.410;2022-11-13T02:10:43;31.40;;;12.07;;
28009;SDS011;15334;49.494;8.410;2022-11-13T02:13:13;41.67;;;12.77;;
28009;SDS011;15334;49.494;8.410;2022-11-13T02:15:42;32.78;;;12.30;;
28009;SDS011;15334;49.494;8.410;2022-11-13T02:18:16;40.20;;;13.40;;
28009;SDS011;15334;49.494;8.410;2022-11-13T02:20:54;34.55;;;13.48;;
28009;SDS011;15334;49.494;8.410;2022-11-13T02:23:36;35.40;;;13.20;;
28009;SDS011;15334;49.494;8.410;2022-11-13T02:26:13;33.78;;;13.55;;
28009;SDS011;15334;49.494;8.410;2022-11-13T02:28:43;45.88;;;15.90;;
28009;SDS011;15334;49.494;8.410;2022-11-13T02:31:13;45.53;;;13.93;;
28009;SDS011;15334;49.494;8.410;2022-11-13T02:33:50;43.53;;;15.65;;
28009;SDS011;15334;49.494;8.410;2022-11-13T02:36:19;38.53;;;13.82;;
28009;SDS011;15334;49.494;8.410;2022-11-13T02:38:52;40.13;;;13.48;;
28009;SDS011;15334;49.494;8.410;2022-11-13T02:41:29;46.08;;;12.45;;
28009;SDS011;15334;49.494;8.410;2022-11-13T02:44:17;36.67;;;11.32;;
28009;SDS011;15334;49.494;8.410;2022-11-13T02:46:45;22.98;;;9.85;;
28009;SDS011;15334;49.494;8.410;2022-11-13T02:49:13;30.90;;;10.15;;
28009;SDS011;15334;49.494;8.410;2022-11-13T02:51:42;37.97;;;11.02;;
28009;SDS011;15334;49.494;8.410;2022-11-13T02:54:12;32.15;;;11.20;;
28009;SDS011;15334;49.494;8.410;2022-11-13T02:56:45;25.23;;;10.63;;
28009;SDS011;15334;49.494;8.410;2022-11-13T02:59:14;26.02;;;10.82;;
28009;SDS011;15334;49.494;8.410;2022-11-13T03:01:49;39.83;;;10.30;;
28009;SDS011;15334;49.494;8.410;2022-11-13T03:04:18;29.17;;;11.77;;
28009;SDS011;15334;49.494;8.410;2022-11-13T03:06:46;27.38;;;12.13;;
28009;SDS011;15334;49.494;8.410;2022-11-13T03:09:15;35.40;;;11.73;;
28009;SDS011;15334;49.494;8.410;2022-11-13T03:11:43;36.70;;;10.10;;
28009;SDS011;15334;49.494;8.410;2022-11-13T03:14:15;24.92;;;10.52;;
28009;SDS011;15334;49.494;8.410;2022-11-13T03:16:44;32.42;;;9.90;;
28009;SDS011;15334;49.494;8.410;2022-11-13T03:19:15;27.92;;;9.80;;
28009;SDS011;15334;49.494;8.410;2022-11-13T03:21:46;32.90;;;9.68;;
28009;SDS011;15334;49.494;8.410;2022-11-13T03:24:17;28.25;;;9.63;;
28009;SDS011;15334;49.494;8.410;2022-11-13T03:26:49;20.05;;;9.15;;
28009;SDS011;15334;49.494;8.410;2022-11-13T03:29:17;31.58;;;10.07;;
28009;SDS011;15334;49.494;8.410;2022-11-13T03:31:45;27.73;;;10.38;;
28009;SDS011;15334;49.494;8.410;2022-11-13T03:34:13;26.73;;;11.18;;
28009;SDS011;15334;49.494;8.410;2022-11-13T03:36:46;47.85;;;12.98;;
28009;SDS011;15334;49.494;8.410;2022-11-13T03:39:14;39.65;;;11.77;;
28009;SDS011;15334;49.494;8.410;2022-11-13T03:41:42;33.17;;;11.10;;
28009;SDS011;15334;49.494;8.410;2022-11-13T03:44:12;41.67;;;11.25;;
28009;SDS011;15334;49.494;8.410;2022-11-13T03:46:42;24.98;;;10.38;;
28009;SDS011;15334;49.494;8.410;2022-11-13T03:49:13;24.63;;;9.60;;
28009;SDS011;15334;49.494;8.410;2022-11-13T03:51:41;26.02;;;9.65;;
28009;SDS011;15334;49.494;8.410;2022-11-13T03:54:10;33.38;;;11.73;;
28009;SDS011;15334;49.494;8.410;2022-11-13T03:56:39;33.95;;;11.30;;
28009;SDS011;15334;49.494;8.410;2022-11-13T03:59:08;40.35;;;12.57;;
28009;SDS011;15334;49.494;8.410;2022-11-13T04:01:40;40.65;;;13.27;;
28009;SDS011;15334;49.494;8.410;2022-11-13T04:04:08;43.15;;;12.60;;
28009;SDS011;15334;49.494;8.410;2022-11-13T04:06:37;38.28;;;11.98;;
28009;SDS011;15334;49.494;8.410;2022-11-13T04:09:06;43.42;;;13.60;;
28009;SDS011;15334;49.494;8.410;2022-11-13T04:11:34;38.20;;;12.68;;
28009;SDS011;15334;49.494;8.410;2022-11-13T04:14:03;45.20;;;12.10;;
28009;SDS011;15334;49.494;8.410;2022-11-13T04:16:37;36.33;;;11.52;;
28009;SDS011;15334;49.494;8.410;2022-11-13T04:19:07;36.90;;;11.07;;
28009;SDS011;15334;49.494;8.410;2022-11-13T04:21:35;45.65;;;14.45;;
28009;SDS011;15334;49.494;8.410;2022-11-13T04:24:04;42.25;;;12.60;;
28009;SDS011;15334;49.494;8.410;2022-11-13T04:26:34;39.20;;;12.50;;
28009;SDS011;15334;49.494;8.410;2022-11-13T04:29:03;42.95;;;13.07;;
28009;SDS011;15334;49.494;8.410;2022-11-13T04:31:31;42.30;;;15.25;;
28009;SDS011;15334;49.494;8.410;2022-11-13T04:34:01;47.80;;;15.13;;
28009;SDS011;15334;49.494;8.410;2022-11-13T04:36:30;43.70;;;14.77;;
28009;SDS011;15334;49.494;8.410;2022-11-13T04:38:58;43.55;;;16.50;;
28009;SDS011;15334;49.494;8.410;2022-11-13T04:41:27;62.45;;;16.95;;
28009;SDS011;15334;49.494;8.410;2022-11-13T04:44:21;47.97;;;17.50;;
28009;SDS011;15334;49.494;8.410;2022-11-13T04:46:52;61.30;;;18.35;;
28009;SDS011;15334;49.494;8.410;2022-11-13T04:49:23;58.55;;;17.23;;
28009;SDS011;15334;49.494;8.410;2022-11-13T04:51:52;70.10;;;20.83;;
28009;SDS011;15334;49.494;8.410;2022-11-13T04:54:20;51.75;;;18.73;;
28009;SDS011;15334;49.494;8.410;2022-11-13T04:56:54;66.55;;;17.13;;
28009;SDS011;15334;49.494;8.410;2022-11-13T04:59:25;48.10;;;16.98;;
28009;SDS011;15334;49.494;8.410;2022-11-13T05:01:54;49.72;;;17.83;;
28009;SDS011;15334;49.494;8.410;2022-11-13T05:04:24;70.18;;;19.40;;
28009;SDS011;15334;49.494;8.410;2022-11-13T05:06:52;58.65;;;17.05;;
28009;SDS011;15334;49.494;8.410;2022-11-13T05:09:21;68.07;;;18.25;;
28009;SDS011;15334;49.494;8.410;2022-11-13T05:11:50;71.00;;;17.50;;
28009;SDS011;15334;49.494;8.410;2022-11-13T05:14:18;58.72;;;17.75;;
28009;SDS011;15334;49.494;8.410;2022-11-13T05:16:46;63.03;;;16.60;;
28009;SDS011;15334;49.494;8.410;2022-11-13T05:19:15;49.63;;;16.38;;
28009;SDS011;15334;49.494;8.410;2022-11-13T05:21:46;58.85;;;16.65;;
28009;SDS011;15334;49.494;8.410;2022-11-13T05:24:20;53.95;;;16.17;;
28009;SDS011;15334;49.494;8.410;2022-11-13T05:26:48;47.95;;;15.82;;
28009;SDS011;15334;49.494;8.410;2022-11-13T05:29:17;49.42;;;14.63;;
28009;SDS011;15334;49.494;8.410;2022-11-13T05:31:46;47.28;;;14.32;;
28009;SDS011;15334;49.494;8.410;2022-11-13T05:34:15;48.58;;;14.35;;
28009;SDS011;15334;49.494;8.410;2022-11-13T05:36:46;45.72;;;13.95;;
28009;SDS011;15334;49.494;8.410;2022-11-13T05:39:14;38.42;;;13.40;;
28009;SDS011;15334;49.494;8.410;2022-11-13T05:41:43;48.42;;;13.75;;
28009;SDS011;15334;49.494;8.410;2022-11-13T05:46:44;47.33;;;11.57;;
28009;SDS011;15334;49.494;8.410;2022-11-13T05:49:12;28.65;;;11.45;;
28009;SDS011;15334;49.494;8.410;2022-11-13T05:51:41;36.92;;;12.30;;
28009;SDS011;15334;49.494;8.410;2022-11-13T05:54:13;38.50;;;12.48;;
28009;SDS011;15334;49.494;8.410;2022-11-13T05:56:42;33.90;;;11.95;;
28009;SDS011;15334;49.494;8.410;2022-11-13T05:59:11;27.63;;;10.73;;
28009;SDS011;15334;49.494;8.410;2022-11-13T06:01:41;43.72;;;13.65;;
28009;SDS011;15334;49.494;8.410;2022-11-13T06:04:09;30.67;;;12.27;;
28009;SDS011;15334;49.494;8.410;2022-11-13T06:06:38;38.58;;;14.02;;
28009;SDS011;15334;49.494;8.410;2022-11-13T06:09:12;31.77;;;12.63;;
28009;SDS011;15334;49.494;8.410;2022-11-13T06:11:43;29.90;;;12.95;;
28009;SDS011;15334;49.494;8.410;2022-11-13T06:14:11;44.40;;;14.13;;
28009;SDS011;15334;49.494;8.410;2022-11-13T06:16:40;33.20;;;12.18;;
28009;SDS011;15334;49.494;8.410;2022-11-13T06:19:09;34.67;;;12.57;;
28009;SDS011;15334;49.494;8.410;2022-11-13T06:21:39;32.22;;;11.68;;
28009;SDS011;15334;49.494;8.410;2022-11-13T06:24:09;53.15;;;13.27;;
28009;SDS011;15334;49.494;8.410;2022-11-13T06:26:40;42.03;;;13.57;;
28009;SDS011;15334;49.494;8.410;2022-11-13T06:29:09;29.63;;;13.25;;
28009;SDS011;15334;49.494;8.410;2022-11-13T06:31:38;38.40;;;13.13;;
28009;SDS011;15334;49.494;8.410;2022-11-13T06:34:09;35.83;;;11.80;;
28009;SDS011;15334;49.494;8.410;2022-11-13T06:36:38;29.10;;;12.40;;
28009;SDS011;15334;49.494;8.410;2022-11-13T06:39:07;30.30;;;11.57;;
28009;SDS011;15334;49.494;8.410;2022-11-13T06:41:36;32.80;;;12.05;;
28009;SDS011;15334;49.494;8.410;2022-11-13T06:44:07;29.75;;;11.38;;
28009;SDS011;15334;49.494;8.410;2022-11-13T06:46:35;39.50;;;14.18;;
28009;SDS011;15334;49.494;8.410;2022-11-13T06:49:06;29.75;;;12.30;;
28009;SDS011;15334;49.494;8.410;2022-11-13T06:51:34;29.40;;;11.77;;
28009;SDS011;15334;49.494;8.410;2022-11-13T06:54:02;30.08;;;13.25;;
28009;SDS011;15334;49.494;8.410;2022-11-13T06:56:30;37.47;;;13.23;;
28009;SDS011;15334;49.494;8.410;2022-11-13T06:58:59;35.55;;;14.05;;
28009;SDS011;15334;49.494;8.410;2022-11-13T07:01:39;35.65;;;13.43;;
28009;SDS011;15334;49.494;8.410;2022-11-13T07:04:22;24.52;;;10.85;;
28009;SDS011;15334;49.494;8.410;2022-11-13T07:07:20;44.47;;;12.80;;
28009;SDS011;15334;49.494;8.410;2022-11-13T07:10:11;28.27;;;12.15;;
28009;SDS011;15334;49.494;8.410;2022-11-13T07:13:09;38.47;;;13.90;;
28009;SDS011;15334;49.494;8.410;2022-11-13T07:16:06;34.60;;;12.13;;
28009;SDS011;15334;49.494;8.410;2022-11-13T07:18:58;38.67;;;12.02;;
28009;SDS011;15334;49.494;8.410;2022-11-13T07:21:42;35.95;;;12.52;;
28009;SDS011;15334;49.494;8.410;2022-11-13T07:24:14;35.80;;;12.45;;
28009;SDS011;15334;49.494;8.410;2022-11-13T07:26:50;40.38;;;11.93;;
28009;SDS011;15334;49.494;8.410;2022-11-13T07:29:37;31.90;;;13.15;;
28009;SDS011;15334;49.494;8.410;2022-11-13T07:32:24;36.80;;;12.93;;
28009;SDS011;15334;49.494;8.410;2022-11-13T07:34:58;37.47;;;14.15;;
28009;SDS011;15334;49.494;8.410;2022-11-13T07:37:33;37.33;;;13.48;;
28009;SDS011;15334;49.494;8.410;2022-11-13T07:40:02;40.35;;;13.68;;
28009;SDS011;15334;49.494;8.410;2022-11-13T07:42:31;35.38;;;13.20;;
28009;SDS011;15334;49.494;8.410;2022-11-13T07:45:15;32.85;;;13.30;;
28009;SDS011;15334;49.494;8.410;2022-11-13T07:47:56;36.00;;;13.98;;
28009;SDS011;15334;49.494;8.410;2022-11-13T07:50:30;37.03;;;14.15;;
28009;SDS011;15334;49.494;8.410;2022-11-13T07:53:01;33.60;;;12.77;;
28009;SDS011;15334;49.494;8.410;2022-11-13T07:55:32;31.27;;;13.35;;
28009;SDS011;15334;49.494;8.410;2022-11-13T07:58:04;37.55;;;15.40;;
28009;SDS011;15334;49.494;8.410;2022-11-13T08:00:33;28.95;;;14.63;;
28009;SDS011;15334;49.494;8.410;2022-11-13T08:03:05;39.67;;;15.00;;
28009;SDS011;15334;49.494;8.410;2022-11-13T08:05:35;39.33;;;13.00;;
28009;SDS011;15334;49.494;8.410;2022-11-13T08:08:05;54.25;;;16.67;;
28009;SDS011;15334;49.494;8.410;2022-11-13T08:10:34;53.65;;;17.58;;
28009;SDS011;15334;49.494;8.410;2022-11-13T08:13:08;45.13;;;18.08;;
28009;SDS011;15334;49.494;8.410;2022-11-13T08:15:41;43.90;;;16.05;;
28009;SDS011;15334;49.494;8.410;2022-11-13T08:18:11;37.20;;;14.05;;
28009;SDS011;15334;49.494;8.410;2022-11-13T08:20:41;35.80;;;13.93;;
28009;SDS011;15334;49.494;8.410;2022-11-13T08:23:09;39.92;;;13.93;;
28009;SDS011;15334;49.494;8.410;2022-11-13T08:25:37;38.08;;;14.23;;
28009;SDS011;15334;49.494;8.410;2022-11-13T08:28:06;43.65;;;15.50;;
28009;SDS011;15334;49.494;8.410;2022-11-13T08:30:39;40.50;;;12.95;;
28009;SDS011;15334;49.494;8.410;2022-11-13T08:33:12;38.45;;;14.35;;
28009;SDS011;15334;49.494;8.410;2022-11-13T08:35:41;31.30;;;13.27;;
28009;SDS011;15334;49.494;8.410;2022-11-13T08:38:19;27.35;;;13.43;;
28009;SDS011;15334;49.494;8.410;2022-11-13T08:40:54;33.67;;;13.65;;
28009;SDS011;15334;49.494;8.410;2022-11-13T08:43:40;31.83;;;14.30;;
28009;SDS011;15334;49.494;8.410;2022-11-13T08:46:12;30.75;;;12.82;;
28009;SDS011;15334;49.494;8.410;2022-11-13T08:48:43;22.75;;;10.23;;
28009;SDS011;15334;49.494;8.410;2022-11-13T08:51:22;29.58;;;14.68;;
28009;SDS011;15334;49.494;8.410;2022-11-13T08:54:07;33.97;;;14.27;;
28009;SDS011;15334;49.494;8.410;2022-11-13T08:57:06;28.33;;;13.27;;
28009;SDS011;15334;49.494;8.410;2022-11-13T08:59:39;36.97;;;12.88;;
28009;SDS011;15334;49.494;8.410;2022-11-13T09:02:20;35.83;;;14.90;;
28009;SDS011;15334;49.494;8.410;2022-11-13T09:04:52;38.97;;;14.68;;
28009;SDS011;15334;49.494;8.410;2022-11-13T09:07:22;33.90;;;13.55;;
28009;SDS011;15334;49.494;8.410;2022-11-13T09:09:53;39.00;;;14.43;;
28009;SDS011;15334;49.494;8.410;2022-11-13T09:12:23;35.08;;;13.90;;
28009;SDS011;15334;49.494;8.410;2022-11-13T09:14:51;36.70;;;14.60;;
28009;SDS011;15334;49.494;8.410;2022-11-13T09:17:25;30.88;;;13.07;;
28009;SDS011;15334;49.494;8.410;2022-11-13T09:19:53;29.33;;;13.57;;
28009;SDS011;15334;49.494;8.410;2022-11-13T09:22:30;37.42;;;15.07;;
28009;SDS011;15334;49.494;8.410;2022-11-13T09:24:59;37.47;;;16.40;;
28009;SDS011;15334;49.494;8.410;2022-11-13T09:27:27;30.05;;;14.30;;
28009;SDS011;15334;49.494;8.410;2022-11-13T09:29:56;31.85;;;15.00;;
28009;SDS011;15334;49.494;8.410;2022-11-13T09:32:24;38.92;;;15.20;;
28009;SDS011;15334;49.494;8.410;2022-11-13T09:37:21;30.42;;;13.73;;
28009;SDS011;15334;49.494;8.410;2022-11-13T09:39:50;31.60;;;13.75;;
28009;SDS011;15334;49.494;8.410;2022-11-13T09:42:19;31.15;;;13.35;;
28009;SDS011;15334;49.494;8.410;2022-11-13T09:44:50;33.15;;;15.70;;
28009;SDS011;15334;49.494;8.410;2022-11-13T09:47:22;30.65;;;13.90;;
28009;SDS011;15334;49.494;8.410;2022-11-13T09:49:56;34.78;;;13.98;;
28009;SDS011;15334;49.494;8.410;2022-11-13T09:52:29;35.58;;;15.73;;
28009;SDS011;15334;49.494;8.410;2022-11-13T09:55:00;30.20;;;15.00;;
28009;SDS011;15334;49.494;8.410;2022-11-13T09:57:32;27.13;;;12.27;;
28009;SDS011;15334;49.494;8.410;2022-11-13T10:00:09;28.45;;;14.05;;
28009;SDS011;15334;49.494;8.410;2022-11-13T10:02:44;29.48;;;12.13;;
28009;SDS011;15334;49.494;8.410;2022-11-13T10:05:21;24.45;;;12.38;;
28009;SDS011;15334;49.494;8.410;2022-11-13T10:07:56;28.85;;;12.80;;
28009;SDS011;15334;49.494;8.410;2022-11-13T10:10:39;26.15;;;12.10;;
28009;SDS011;15334;49.494;8.410;2022-11-13T10:13:23;24.02;;;12.05;;
28009;SDS011;15334;49.494;8.410;2022-11-13T10:15:56;30.15;;;13.07;;
28009;SDS011;15334;49.494;8.410;2022-11-13T10:18:29;23.75;;;11.32;;
28009;SDS011;15334;49.494;8.410;2022-11-13T10:21:04;31.58;;;15.32;;
28009;SDS011;15334;49.494;8.410;2022-11-13T10:23:41;31.65;;;13.80;;
28009;SDS011;15334;49.494;8.410;2022-11-13T10:26:16;31.73;;;14.35;;
28009;SDS011;15334;49.494;8.410;2022-11-13T10:28:45;26.45;;;13.27;;
28009;SDS011;15334;49.494;8.410;2022-11-13T10:31:16;26.90;;;14.05;;
28009;SDS011;15334;49.494;8.410;2022-11-13T10:33:44;25.80;;;13.52;;
28009;SDS011;15334;49.494;8.410;2022-11-13T10:36:14;30.45;;;12.35;;
28009;SDS011;15334;49.494;8.410;2022-11-13T10:38:47;25.55;;;12.35;;
28009;SDS011;15334;49.494;8.410;2022-11-13T10:41:22;26.38;;;12.60;;
28009;SDS011;15334;49.494;8.410;2022-11-13T10:43:55;23.65;;;12.32;;
28009;SDS011;15334;49.494;8.410;2022-11-13T10:46:24;22.08;;;12.00;;
28009;SDS011;15334;49.494;8.410;2022-11-13T10:48:56;28.42;;;14.35;;
28009;SDS011;15334;49.494;8.410;2022-11-13T10:51:26;27.73;;;13.55;;
28009;SDS011;15334;49.494;8.410;2022-11-13T10:53:57;23.88;;;12.70;;
28009;SDS011;15334;49.494;8.410;2022-11-13T10:56:27;28.40;;;13.32;;
28009;SDS011;15334;49.494;8.410;2022-11-13T10:59:01;27.52;;;14.30;;
28009;SDS011;15334;49.494;8.410;2022-11-13T11:01:30;33.08;;;15.57;;
28009;SDS011;15334;49.494;8.410;2022-11-13T11:03:58;25.92;;;13.23;;
28009;SDS011;15334;49.494;8.410;2022-11-13T11:06:32;22.90;;;12.48;;
28009;SDS011;15334;49.494;8.410;2022-11-13T11:12:00;18.25;;;10.70;;
28009;SDS011;15334;49.494;8.410;2022-11-13T11:14:58;21.15;;;10.45;;
28009;SDS011;15334;49.494;8.410;2022-11-13T11:17:37;19.02;;;9.98;;
28009;SDS011;15334;49.494;8.410;2022-11-13T11:20:15;20.10;;;10.88;;
28009;SDS011;15334;49.494;8.410;2022-11-13T11:22:53;21.00;;;12.00;;
28009;SDS011;15334;49.494;8.410;2022-11-13T11:25:28;16.05;;;10.23;;
28009;SDS011;15334;49.494;8.410;2022-11-13T11:28:14;19.70;;;11.15;;
28009;SDS011;15334;49.494;8.410;2022-11-13T11:30:54;20.23;;;11.82;;
28009;SDS011;15334;49.494;8.410;2022-11-13T11:33:27;20.70;;;12.27;;
28009;SDS011;15334;49.494;8.410;2022-11-13T11:36:07;21.67;;;13.45;;
28009;SDS011;15334;49.494;8.410;2022-11-13T11:38:49;27.40;;;14.02;;
28009;SDS011;15334;49.494;8.410;2022-11-13T11:41:23;25.23;;;14.80;;
28009;SDS011;15334;49.494;8.410;2022-11-13T11:44:01;24.70;;;13.23;;
28009;SDS011;15334;49.494;8.410;2022-11-13T11:46:38;20.10;;;13.02;;
28009;SDS011;15334;49.494;8.410;2022-11-13T11:49:12;25.42;;;14.75;;
28009;SDS011;15334;49.494;8.410;2022-11-13T11:51:42;29.58;;;14.02;;
28009;SDS011;15334;49.494;8.410;2022-11-13T11:54:25;23.45;;;14.00;;
28009;SDS011;15334;49.494;8.410;2022-11-13T11:57:01;21.70;;;13.05;;
28009;SDS011;15334;49.494;8.410;2022-11-13T11:59:44;18.63;;;11.80;;
28009;SDS011;15334;49.494;8.410;2022-11-13T12:05:20;17.60;;;10.55;;
28009;SDS011;15334;49.494;8.410;2022-11-13T12:07:54;17.67;;;11.10;;
28009;SDS011;15334;49.494;8.410;2022-11-13T12:10:35;19.88;;;11.43;;
28009;SDS011;15334;49.494;8.410;2022-11-13T12:13:17;16.08;;;11.27;;
28009;SDS011;15334;49.494;8.410;2022-11-13T12:15:59;17.50;;;10.40;;
28009;SDS011;15334;49.494;8.410;2022-11-13T12:18:34;16.42;;;9.55;;
28009;SDS011;15334;49.494;8.410;2022-11-13T12:21:16;21.00;;;10.10;;
28009;SDS011;15334;49.494;8.410;2022-11-13T12:24:02;17.70;;;10.23;;
28009;SDS011;15334;49.494;8.410;2022-11-13T12:26:41;19.92;;;11.50;;
28009;SDS011;15334;49.494;8.410;2022-11-13T12:29:22;21.63;;;12.23;;
28009;SDS011;15334;49.494;8.410;2022-11-13T12:32:04;18.42;;;10.90;;
28009;SDS011;15334;49.494;8.410;2022-11-13T12:34:47;23.98;;;11.85;;
28009;SDS011;15334;49.494;8.410;2022-11-13T12:37:19;17.00;;;11.35;;
28009;SDS011;15334;49.494;8.410;2022-11-13T12:39:54;15.98;;;10.30;;
28009;SDS011;15334;49.494;8.410;2022-11-13T12:42:28;20.00;;;10.05;;
28009;SDS011;15334;49.494;8.410;2022-11-13T12:45:04;13.05;;;9.13;;
28009;SDS011;15334;49.494;8.410;2022-11-13T12:47:44;13.05;;;8.55;;
28009;SDS011;15334;49.494;8.410;2022-11-13T12:53:00;10.32;;;6.95;;
28009;SDS011;15334;49.494;8.410;2022-11-13T12:55:33;12.82;;;7.68;;
28009;SDS011;15334;49.494;8.410;2022-11-13T12:58:05;14.15;;;7.68;;
28009;SDS011;15334;49.494;8.410;2022-11-13T13:00:36;15.75;;;9.57;;
28009;SDS011;15334;49.494;8.410;2022-11-13T13:03:25;12.52;;;8.35;;
28009;SDS011;15334;49.494;8.410;2022-11-13T13:06:11;16.92;;;7.97;;
28009;SDS011;15334;49.494;8.410;2022-11-13T13:08:53;14.85;;;8.18;;
28009;SDS011;15334;49.494;8.410;2022-11-13T13:11:30;12.98;;;7.57;;
28009;SDS011;15334;49.494;8.410;2022-11-13T13:14:18;13.93;;;7.47;;
28009;SDS011;15334;49.494;8.410;2022-11-13T13:17:03;13.60;;;7.03;;
28009;SDS011;15334;49.494;8.410;2022-11-13T13:19:34;12.73;;;6.97;;
28009;SDS011;15334;49.494;8.410;2022-11-13T13:22:02;13.02;;;7.43;;
28009;SDS011;15334;49.494;8.410;2022-11-13T13:24:36;16.85;;;7.38;;
28009;SDS011;15334;49.494;8.410;2022-11-13T13:27:19;13.57;;;7.65;;
28009;SDS011;15334;49.494;8.410;2022-11-13T13:29:49;12.35;;;6.40;;
28009;SDS011;15334;49.494;8.410;2022-11-13T13:32:19;18.30;;;6.53;;
28009;SDS011;15334;49.494;8.410;2022-11-13T13:34:56;10.27;;;6.28;;
28009;SDS011;15334;49.494;8.410;2022-11-13T13:37:32;11.30;;;6.35;;
28009;SDS011;15334;49.494;8.410;2022-11-13T13:40:13;13.13;;;6.63;;
28009;SDS011;15334;49.494;8.410;2022-11-13T13:42:52;9.90;;;6.57;;
28009;SDS011;15334;49.494;8.410;2022-11-13T13:45:35;11.35;;;6.05;;
28009;SDS011;15334;49.494;8.410;2022-11-13T13:48:11;9.18;;;5.38;;
28009;SDS011;15334;49.494;8.410;2022-11-13T13:50:44;10.93;;;5.43;;
28009;SDS011;15334;49.494;8.410;2022-11-13T13:53:15;9.18;;;5.22;;
28009;SDS011;15334;49.494;8.410;2022-11-13T13:55:48;13.65;;;7.38;;
28009;SDS011;15334;49.494;8.410;2022-11-13T13:58:21;11.35;;;5.63;;
28009;SDS011;15334;49.494;8.410;2022-11-13T14:00:55;10.70;;;5.15;;
28009;SDS011;15334;49.494;8.410;2022-11-13T14:03:43;12.55;;;6.25;;
28009;SDS011;15334;49.494;8.410;2022-11-13T14:06:19;10.57;;;5.97;;
28009;SDS011;15334;49.494;8.410;2022-11-13T14:08:48;8.52;;;5.20;;
28009;SDS011;15334;49.494;8.410;2022-11-13T14:11:18;11.25;;;5.43;;
28009;SDS011;15334;49.494;8.410;2022-11-13T14:13:47;9.57;;;6.00;;
28009;SDS011;15334;49.494;8.410;2022-11-13T14:16:15;8.48;;;4.32;;
28009;SDS011;15334;49.494;8.410;2022-11-13T14:18:45;8.57;;;4.18;;
28009;SDS011;15334;49.494;8.410;2022-11-13T14:21:15;10.83;;;5.00;;
28009;SDS011;15334;49.494;8.410;2022-11-13T14:23:49;10.57;;;4.72;;
28009;SDS011;15334;49.494;8.410;2022-11-13T14:26:19;8.10;;;4.32;;
28009;SDS011;15334;49.494;8.410;2022-11-13T14:28:49;7.45;;;4.32;;
28009;SDS011;15334;49.494;8.410;2022-11-13T14:31:24;7.85;;;4.07;;
28009;SDS011;15334;49.494;8.410;2022-11-13T14:33:55;8.93;;;4.10;;
28009;SDS011;15334;49.494;8.410;2022-11-13T14:36:27;7.15;;;3.50;;
28009;SDS011;15334;49.494;8.410;2022-11-13T14:38:58;8.88;;;4.20;;
28009;SDS011;15334;49.494;8.410;2022-11-13T14:41:28;8.00;;;3.75;;
28009;SDS011;15334;49.494;8.410;2022-11-13T14:44:00;10.55;;;5.20;;
28009;SDS011;15334;49.494;8.410;2022-11-13T14:46:30;8.32;;;3.85;;
28009;SDS011;15334;49.494;8.410;2022-11-13T14:49:00;7.53;;;4.07;;
28009;SDS011;15334;49.494;8.410;2022-11-13T14:51:30;7.93;;;3.30;;
28009;SDS011;15334;49.494;8.410;2022-11-13T14:54:01;6.47;;;3.95;;
28009;SDS011;15334;49.494;8.410;2022-11-13T14:56:35;6.43;;;3.40;;
28009;SDS011;15334;49.494;8.410;2022-11-13T14:59:07;10.63;;;3.72;;
28009;SDS011;15334;49.494;8.410;2022-11-13T15:01:52;5.88;;;3.40;;
28009;SDS011;15334;49.494;8.410;2022-11-13T15:04:20;7.78;;;3.42;;
28009;SDS011;15334;49.494;8.410;2022-11-13T15:06:48;7.43;;;3.35;;
28009;SDS011;15334;49.494;8.410;2022-11-13T15:09:22;6.65;;;3.38;;
28009;SDS011;15334;49.494;8.410;2022-11-13T15:11:52;9.23;;;4.30;;
28009;SDS011;15334;49.494;8.410;2022-11-13T15:14:20;8.07;;;3.58;;